createdAt,value
2022-08-07T00:03:28.312Z,87.60
2022-08-07T00:13:58.488Z,87.34
2022-08-07T00:24:20.960Z,88.51
2022-08-07T00:34:49.180Z,88.12
2022-08-07T00:45:16.130Z,87.35
2022-08-07T00:56:00.797Z,89.09
2022-08-07T01:06:21.945Z,91.52
2022-08-07T01:16:47.345Z,88.55
2022-08-07T01:27:19.528Z,89.60
2022-08-07T01:37:41.937Z,90.70
2022-08-07T01:48:19.303Z,89.73
2022-08-07T01:58:54.720Z,91.99
2022-08-07T02:09:33.526Z,93.45
2022-08-07T02:20:10.044Z,92.17
2022-08-07T02:30:40.722Z,92.99
2022-08-07T02:41:04.313Z,92.70
2022-08-07T02:51:49.773Z,93.23
2022-08-07T03:02:13.197Z,90.67
2022-08-07T03:12:37.352Z,91.37
2022-08-07T03:22:59.696Z,91.96
2022-08-07T03:33:21.322Z,94.22
2022-08-07T03:43:56.752Z,92.06
2022-08-07T03:54:35.488Z,92.71
2022-08-07T04:05:00.856Z,94.31
2022-08-07T04:15:23.964Z,91.94
2022-08-07T04:25:46.278Z,94.40
2022-08-07T04:36:10.961Z,94.02
2022-08-07T04:46:39.977Z,93.73
2022-08-07T04:58:26.182Z,92.21
2022-08-07T05:08:45.766Z,92.27
2022-08-07T05:19:13.244Z,93.19
2022-08-07T05:29:50.994Z,91.78
2022-08-07T05:40:18.702Z,91.27
2022-08-07T05:50:42.961Z,89.29
2022-08-07T06:01:11.104Z,83.51
2022-08-07T06:11:34.490Z,82.63
2022-08-07T06:22:11.725Z,80.01
2022-08-07T06:32:38.073Z,78.91
2022-08-07T06:43:03.861Z,76.87
2022-08-07T06:55:28.226Z,75.32
2022-08-07T07:04:32.037Z,71.48
2022-08-07T07:15:03.869Z,72.94
2022-08-07T07:26:34.226Z,73.19
2022-08-07T07:36:13.476Z,72.74
2022-08-07T07:46:54.421Z,70.77
2022-08-07T07:57:43.719Z,68.82
2022-08-07T08:08:03.819Z,68.14
2022-08-07T08:18:27.599Z,67.30
2022-08-07T08:28:51.877Z,65.74
2022-08-07T08:39:15.461Z,66.15
2022-08-07T08:50:02.637Z,64.14
2022-08-07T09:00:30.314Z,61.51
2022-08-07T09:11:24.673Z,59.61
2022-08-07T09:22:39.399Z,60.45
2022-08-07T09:32:53.792Z,58.86
2022-08-07T09:44:03.092Z,57.44
2022-08-07T09:54:27.196Z,57.65
2022-08-07T10:05:12.601Z,57.04
2022-08-07T10:15:57.371Z,54.89
2022-08-07T10:26:52.978Z,53.97
2022-08-07T10:37:59.960Z,57.71
2022-08-07T10:48:25.085Z,50.17
2022-08-07T10:59:13.618Z,51.75
2022-08-07T11:10:07.358Z,52.63
2022-08-07T11:20:43.602Z,47.46
2022-08-07T11:31:38.905Z,44.38
2022-08-07T11:42:18.615Z,46.45
2022-08-07T11:53:04.989Z,46.25
2022-08-07T12:03:44.588Z,47.02
2022-08-07T12:14:19.142Z,46.29
2022-08-07T12:26:06.082Z,47.35
2022-08-07T12:36:05.693Z,50.58
2022-08-07T12:46:40.800Z,45.72
2022-08-07T12:57:09.604Z,46.99
2022-08-07T13:08:12.494Z,46.61
2022-08-07T13:18:49.157Z,45.14
2022-08-07T13:29:21.698Z,44.27
2022-08-07T13:40:35.883Z,43.62
2022-08-07T13:50:45.319Z,46.23
2022-08-07T14:01:20.390Z,46.82
2022-08-07T14:11:53.505Z,46.84
2022-08-07T14:22:34.692Z,47.76
2022-08-07T14:33:00.017Z,46.22
2022-08-07T14:43:57.987Z,47.33
2022-08-07T14:54:31.210Z,50.68
2022-08-07T15:04:52.952Z,45.89
2022-08-07T15:15:23.580Z,43.78
2022-08-07T15:25:47.014Z,44.37
2022-08-07T15:36:11.637Z,50.13
2022-08-07T15:46:39.173Z,45.92
2022-08-07T15:57:40.270Z,45.50
2022-08-07T16:08:30.695Z,47.42
2022-08-07T16:19:12.282Z,45.15
2022-08-07T16:30:11.167Z,43.08
2022-08-07T16:41:07.003Z,44.92
2022-08-07T16:52:52.110Z,45.22
2022-08-07T17:03:57.754Z,46.49
2022-08-07T17:14:41.887Z,51.08
2022-08-07T17:25:15.090Z,50.49
2022-08-07T17:35:54.767Z,50.47
2022-08-07T17:46:22.727Z,50.58
2022-08-07T17:57:18.826Z,52.79
2022-08-07T18:07:44.933Z,54.77
2022-08-07T18:18:46.372Z,56.40
2022-08-07T18:30:05.929Z,60.74
2022-08-07T18:40:08.173Z,64.47
2022-08-07T18:50:44.123Z,67.37
2022-08-07T19:02:16.992Z,67.16
2022-08-07T19:12:53.668Z,66.15
2022-08-07T19:23:58.178Z,66.31
2022-08-07T19:34:33.958Z,67.11
2022-08-07T19:45:08.698Z,67.56
2022-08-07T19:55:57.574Z,67.29
2022-08-07T20:06:15.435Z,66.84
2022-08-07T20:16:54.315Z,66.07
2022-08-07T20:27:46.066Z,67.75
2022-08-07T20:38:06.378Z,67.39
2022-08-07T20:48:30.891Z,68.36
2022-08-07T20:59:01.418Z,69.51
2022-08-07T21:09:28.601Z,69.04
2022-08-07T21:20:04.869Z,69.96
2022-08-07T21:30:56.790Z,70.16
2022-08-07T21:41:24.532Z,71.26
2022-08-07T21:52:16.679Z,72.95
2022-08-07T22:02:53.987Z,72.77
2022-08-07T22:13:16.584Z,73.32
2022-08-07T22:24:00.161Z,74.07
2022-08-07T22:34:35.491Z,76.04
2022-08-07T22:45:02.478Z,77.03
2022-08-07T22:55:36.764Z,76.93
2022-08-07T23:06:23.876Z,77.34
2022-08-07T23:16:54.971Z,77.67
2022-08-07T23:28:22.142Z,77.52
2022-08-07T23:38:55.778Z,79.20
2022-08-07T23:49:42.201Z,78.79
